sensor_id;sensor_type;location;lat;lon;timestamp;pressure;altitude;pressure_sealevel;temperature;humidity
38022;BME280;23832;43.216;27.946;2023-02-01T00:00:12;100678.94;;;7.33;72.11
38022;BME280;23832;43.216;27.946;2023-02-01T00:02:14;100676.31;;;7.33;72.00
38022;BME280;23832;43.216;27.946;2023-02-01T00:04:15;100685.00;;;7.34;72.01
38022;BME280;23832;43.216;27.946;2023-02-01T00:06:17;100673.69;;;7.33;71.64
38022;BME280;23832;43.216;27.946;2023-02-01T00:08:19;100681.41;;;7.35;71.75
38022;BME280;23832;43.216;27.946;2023-02-01T00:10:20;100680.44;;;7.36;72.07
38022;BME280;23832;43.216;27.946;2023-02-01T00:12:24;100681.41;;;7.35;71.85
38022;BME280;23832;43.216;27.946;2023-02-01T00:14:25;100676.16;;;7.35;71.43
38022;BME280;23832;43.216;27.946;2023-02-01T00:16:28;100683.88;;;7.36;71.34
38022;BME280;23832;43.216;27.946;2023-02-01T00:18:30;100683.06;;;7.36;71.31
38022;BME280;23832;43.216;27.946;2023-02-01T00:20:32;100679.59;;;7.35;70.70
38022;BME280;23832;43.216;27.946;2023-02-01T00:22:34;100684.03;;;7.35;70.72
38022;BME280;23832;43.216;27.946;2023-02-01T00:24:36;100680.44;;;7.36;70.79
38022;BME280;23832;43.216;27.946;2023-02-01T00:26:39;100678.78;;;7.35;70.25
38022;BME280;23832;43.216;27.946;2023-02-01T00:28:42;100680.59;;;7.34;70.34
38022;BME280;23832;43.216;27.946;2023-02-01T00:30:44;100684.84;;;7.35;70.63
38022;BME280;23832;43.216;27.946;2023-02-01T00:32:46;100685.69;;;7.36;70.30
38022;BME280;23832;43.216;27.946;2023-02-01T00:34:48;100687.63;;;7.34;69.84
38022;BME280;23832;43.216;27.946;2023-02-01T00:36:50;100680.44;;;7.36;70.06
38022;BME280;23832;43.216;27.946;2023-02-01T00:38:52;100684.03;;;7.35;70.06
38022;BME280;23832;43.216;27.946;2023-02-01T00:40:53;100679.59;;;7.35;69.72
38022;BME280;23832;43.216;27.946;2023-02-01T00:42:55;100683.22;;;7.34;69.88
38022;BME280;23832;43.216;27.946;2023-02-01T00:45:01;100684.84;;;7.35;70.09
38022;BME280;23832;43.216;27.946;2023-02-01T00:47:03;100678.78;;;7.35;70.01
38022;BME280;23832;43.216;27.946;2023-02-01T00:49:05;100677.97;;;7.34;69.69
38022;BME280;23832;43.216;27.946;2023-02-01T00:51:09;100678.78;;;7.35;69.86
38022;BME280;23832;43.216;27.946;2023-02-01T00:53:11;100669.94;;;7.36;69.63
38022;BME280;23832;43.216;27.946;2023-02-01T00:55:13;100669.13;;;7.35;69.37
38022;BME280;23832;43.216;27.946;2023-02-01T00:57:15;100672.72;;;7.34;69.20
38022;BME280;23832;43.216;27.946;2023-02-01T00:59:17;100676.31;;;7.33;69.13
38022;BME280;23832;43.216;27.946;2023-02-01T01:01:21;100664.19;;;7.32;69.51
38022;BME280;23832;43.216;27.946;2023-02-01T01:03:23;100672.88;;;7.33;69.20
38022;BME280;23832;43.216;27.946;2023-02-01T01:05:25;100679.09;;;7.32;68.77
38022;BME280;23832;43.216;27.946;2023-02-01T01:07:28;100680.22;;;7.29;69.51
38022;BME280;23832;43.216;27.946;2023-02-01T01:09:29;100685.47;;;7.29;69.09
38022;BME280;23832;43.216;27.946;2023-02-01T01:11:32;100680.22;;;7.29;68.89
38022;BME280;23832;43.216;27.946;2023-02-01T01:13:34;100681.22;;;7.28;68.94
38022;BME280;23832;43.216;27.946;2023-02-01T01:15:37;100689.06;;;7.28;68.99
38022;BME280;23832;43.216;27.946;2023-02-01T01:17:40;100689.06;;;7.28;69.13
38022;BME280;23832;43.216;27.946;2023-02-01T01:19:42;100692.66;;;7.27;69.20
38022;BME280;23832;43.216;27.946;2023-02-01T01:21:44;100686.56;;;7.27;69.17
38022;BME280;23832;43.216;27.946;2023-02-01T01:23:46;100688.38;;;7.26;68.56
38022;BME280;23832;43.216;27.946;2023-02-01T01:25:48;100688.38;;;7.26;68.75
38022;BME280;23832;43.216;27.946;2023-02-01T01:27:50;100686.72;;;7.25;69.11
38022;BME280;23832;43.216;27.946;2023-02-01T01:29:52;100686.88;;;7.24;69.06
38022;BME280;23832;43.216;27.946;2023-02-01T01:31:53;100683.44;;;7.23;69.07
38022;BME280;23832;43.216;27.946;2023-02-01T01:33:57;100685.91;;;7.25;68.96
38022;BME280;23832;43.216;27.946;2023-02-01T01:36:04;100686.06;;;7.23;68.68
38022;BME280;23832;43.216;27.946;2023-02-01T01:38:06;100680.81;;;7.23;68.57
38022;BME280;23832;43.216;27.946;2023-02-01T01:40:09;100680.81;;;7.23;69.08
38022;BME280;23832;43.216;27.946;2023-02-01T01:42:11;100690.19;;;7.26;69.58
38022;BME280;23832;43.216;27.946;2023-02-01T01:46:34;100689.06;;;7.28;71.30
38022;BME280;23832;43.216;27.946;2023-02-01T01:48:36;100692.38;;;7.30;71.58
38022;BME280;23832;43.216;27.946;2023-02-01T01:50:40;100685.16;;;7.32;72.34
38022;BME280;23832;43.216;27.946;2023-02-01T01:52:44;100692.06;;;7.33;72.59
38022;BME280;23832;43.216;27.946;2023-02-01T01:54:48;100684.84;;;7.35;72.55
38022;BME280;23832;43.216;27.946;2023-02-01T01:56:52;100691.75;;;7.36;72.64
38022;BME280;23832;43.216;27.946;2023-02-01T01:58:56;100697.97;;;7.35;72.08
38022;BME280;23832;43.216;27.946;2023-02-01T02:00:58;100695.34;;;7.35;72.07
38022;BME280;23832;43.216;27.946;2023-02-01T02:03:01;100705.16;;;7.33;72.09
38022;BME280;23832;43.216;27.946;2023-02-01T02:05:06;100700.91;;;7.32;71.50
38022;BME280;23832;43.216;27.946;2023-02-01T02:07:11;100709.91;;;7.30;71.75
38022;BME280;23832;43.216;27.946;2023-02-01T02:09:15;100711.69;;;7.29;71.94
38022;BME280;23832;43.216;27.946;2023-02-01T02:11:17;100709.19;;;7.28;71.89
38022;BME280;23832;43.216;27.946;2023-02-01T02:13:19;100715.31;;;7.28;71.55
38022;BME280;23832;43.216;27.946;2023-02-01T02:15:21;100715.31;;;7.28;71.53
38022;BME280;23832;43.216;27.946;2023-02-01T02:17:26;100712.69;;;7.28;71.24
38022;BME280;23832;43.216;27.946;2023-02-01T02:19:49;100710.06;;;7.28;71.76
38022;BME280;23832;43.216;27.946;2023-02-01T02:22:04;100706.56;;;7.28;71.20
38022;BME280;23832;43.216;27.946;2023-02-01T02:31:54;100708.09;;;7.30;70.29
38022;BME280;23832;43.216;27.946;2023-02-01T02:34:04;100720.25;;;7.31;70.71
38022;BME280;23832;43.216;27.946;2023-02-01T02:36:10;100710.88;;;7.29;70.25
38022;BME280;23832;43.216;27.946;2023-02-01T02:38:15;100711.69;;;7.29;69.95
38022;BME280;23832;43.216;27.946;2023-02-01T02:40:20;100711.81;;;7.28;70.00
38022;BME280;23832;43.216;27.946;2023-02-01T02:42:25;100701.50;;;7.26;69.93
38022;BME280;23832;43.216;27.946;2023-02-01T02:44:48;100699.69;;;7.27;69.81
38022;BME280;23832;43.216;27.946;2023-02-01T02:47:10;100702.47;;;7.25;69.82
38022;BME280;23832;43.216;27.946;2023-02-01T02:49:31;100704.28;;;7.25;69.48
38022;BME280;23832;43.216;27.946;2023-02-01T02:51:36;100718.19;;;7.25;69.36
38022;BME280;23832;43.216;27.946;2023-02-01T02:54:02;100726.06;;;7.25;69.38
38022;BME280;23832;43.216;27.946;2023-02-01T02:56:23;100721.81;;;7.24;69.45
38022;BME280;23832;43.216;27.946;2023-02-01T02:58:43;100722.78;;;7.23;69.40
38022;BME280;23832;43.216;27.946;2023-02-01T03:01:02;100716.72;;;7.23;69.88
38022;BME280;23832;43.216;27.946;2023-02-01T03:03:22;100714.25;;;7.21;69.68
38022;BME280;23832;43.216;27.946;2023-02-01T03:05:43;100723.91;;;7.21;69.43
38022;BME280;23832;43.216;27.946;2023-02-01T03:07:57;100721.13;;;7.22;70.35
38022;BME280;23832;43.216;27.946;2023-02-01T03:10:02;100724.13;;;7.27;73.04
38022;BME280;23832;43.216;27.946;2023-02-01T03:12:07;100722.03;;;7.31;74.06
38022;BME280;23832;43.216;27.946;2023-02-01T03:14:28;100721.72;;;7.34;74.51
38022;BME280;23832;43.216;27.946;2023-02-01T03:16:31;100720.75;;;7.35;75.05
38022;BME280;23832;43.216;27.946;2023-02-01T03:18:35;100728.63;;;7.35;74.77
38022;BME280;23832;43.216;27.946;2023-02-01T03:20:40;100731.41;;;7.33;74.20
38022;BME280;23832;43.216;27.946;2023-02-01T03:22:47;100725.31;;;7.33;74.34
38022;BME280;23832;43.216;27.946;2023-02-01T03:24:51;100729.09;;;7.30;73.67
38022;BME280;23832;43.216;27.946;2023-02-01T03:26:55;100732.69;;;7.29;73.27
38022;BME280;23832;43.216;27.946;2023-02-01T03:29:00;100739.84;;;7.27;73.12
38022;BME280;23832;43.216;27.946;2023-02-01T03:31:04;100738.19;;;7.26;72.95
38022;BME280;23832;43.216;27.946;2023-02-01T03:33:06;100739.19;;;7.25;72.58
38022;BME280;23832;43.216;27.946;2023-02-01T03:35:13;100743.44;;;7.26;73.55
38022;BME280;23832;43.216;27.946;2023-02-01T03:37:16;100744.00;;;7.30;74.81
38022;BME280;23832;43.216;27.946;2023-02-01T03:39:24;100738.97;;;7.36;77.85
38022;BME280;23832;43.216;27.946;2023-02-01T03:41:33;100746.25;;;7.43;80.63
38022;BME280;23832;43.216;27.946;2023-02-01T03:43:39;100744.16;;;7.46;81.96
38022;BME280;23832;43.216;27.946;2023-02-01T03:45:45;100744.97;;;7.47;82.25
38022;BME280;23832;43.216;27.946;2023-02-01T03:47:49;100742.19;;;7.48;81.05
38022;BME280;23832;43.216;27.946;2023-02-01T03:49:54;100741.66;;;7.45;80.71
38022;BME280;23832;43.216;27.946;2023-02-01T03:51:58;100741.16;;;7.41;79.92
38022;BME280;23832;43.216;27.946;2023-02-01T03:54:00;100746.81;;;7.36;79.13
38022;BME280;23832;43.216;27.946;2023-02-01T03:56:05;100746.16;;;7.34;79.13
38022;BME280;23832;43.216;27.946;2023-02-01T03:58:09;100743.84;;;7.31;79.25
38022;BME280;23832;43.216;27.946;2023-02-01T04:00:15;100744.81;;;7.30;78.83
38022;BME280;23832;43.216;27.946;2023-02-01T04:02:17;100759.56;;;7.31;80.91
38022;BME280;23832;43.216;27.946;2023-02-01T04:04:19;100759.13;;;7.36;84.34
38022;BME280;23832;43.216;27.946;2023-02-01T04:06:21;100767.38;;;7.41;86.23
38022;BME280;23832;43.216;27.946;2023-02-01T04:08:23;100774.28;;;7.42;86.52
38022;BME280;23832;43.216;27.946;2023-02-01T04:10:26;100785.59;;;7.43;85.31
38022;BME280;23832;43.216;27.946;2023-02-01T04:12:31;100784.09;;;7.40;84.14
38022;BME280;23832;43.216;27.946;2023-02-01T04:14:33;100780.91;;;7.36;83.67
38022;BME280;23832;43.216;27.946;2023-02-01T04:16:34;100774.19;;;7.34;82.74
38022;BME280;23832;43.216;27.946;2023-02-01T04:18:36;100772.84;;;7.30;82.57
38022;BME280;23832;43.216;27.946;2023-02-01T04:20:38;100770.38;;;7.28;82.11
38022;BME280;23832;43.216;27.946;2023-02-01T04:22:40;100772.28;;;7.26;81.54
38022;BME280;23832;43.216;27.946;2023-02-01T04:24:41;100771.78;;;7.23;80.65
38022;BME280;23832;43.216;27.946;2023-02-01T04:26:43;100768.47;;;7.21;80.40
38022;BME280;23832;43.216;27.946;2023-02-01T04:28:46;100771.38;;;7.18;79.68
38022;BME280;23832;43.216;27.946;2023-02-01T04:30:48;100785.78;;;7.14;80.11
38022;BME280;23832;43.216;27.946;2023-02-01T04:32:50;100783.31;;;7.12;79.90
38022;BME280;23832;43.216;27.946;2023-02-01T04:34:52;100781.78;;;7.09;79.89
38022;BME280;23832;43.216;27.946;2023-02-01T04:36:54;100771.44;;;7.08;79.69
38022;BME280;23832;43.216;27.946;2023-02-01T04:38:55;100773.38;;;7.06;79.01
38022;BME280;23832;43.216;27.946;2023-02-01T04:40:57;100778.94;;;7.03;79.07
38022;BME280;23832;43.216;27.946;2023-02-01T04:43:00;100779.91;;;7.02;78.93
38022;BME280;23832;43.216;27.946;2023-02-01T04:45:03;100788.03;;;6.99;78.46
38022;BME280;23832;43.216;27.946;2023-02-01T04:47:05;100788.66;;;6.93;78.54
38022;BME280;23832;43.216;27.946;2023-02-01T04:49:07;100785.31;;;6.91;79.08
38022;BME280;23832;43.216;27.946;2023-02-01T04:51:10;100788.66;;;6.93;79.87
38022;BME280;23832;43.216;27.946;2023-02-01T04:53:12;100784.09;;;6.95;82.69
38022;BME280;23832;43.216;27.946;2023-02-01T04:55:14;100790.00;;;6.97;83.77
38022;BME280;23832;43.216;27.946;2023-02-01T04:57:16;100785.72;;;6.96;84.53
38022;BME280;23832;43.216;27.946;2023-02-01T04:59:18;100798.84;;;6.96;84.45
38022;BME280;23832;43.216;27.946;2023-02-01T05:01:21;100797.19;;;6.95;84.85
38022;BME280;23832;43.216;27.946;2023-02-01T05:03:24;100795.53;;;6.94;86.93
38022;BME280;23832;43.216;27.946;2023-02-01T05:05:27;100807.13;;;6.91;87.98
38022;BME280;23832;43.216;27.946;2023-02-01T05:07:29;100803.66;;;6.91;87.85
38022;BME280;23832;43.216;27.946;2023-02-01T05:09:31;100810.03;;;6.88;88.70
38022;BME280;23832;43.216;27.946;2023-02-01T05:11:32;100812.13;;;6.85;88.99
38022;BME280;23832;43.216;27.946;2023-02-01T05:13:51;100816.66;;;6.82;88.63
38022;BME280;23832;43.216;27.946;2023-02-01T05:15:53;100821.22;;;6.80;89.14
38022;BME280;23832;43.216;27.946;2023-02-01T05:17:56;100819.59;;;6.79;89.22
38022;BME280;23832;43.216;27.946;2023-02-01T05:19:58;100826.78;;;6.77;88.38
38022;BME280;23832;43.216;27.946;2023-02-01T05:22:00;100826.78;;;6.77;88.93
38022;BME280;23832;43.216;27.946;2023-02-01T05:24:02;100827.75;;;6.76;88.02
38022;BME280;23832;43.216;27.946;2023-02-01T05:26:16;100830.63;;;6.73;88.20
38022;BME280;23832;43.216;27.946;2023-02-01T05:28:18;100833.41;;;6.72;88.54
38022;BME280;23832;43.216;27.946;2023-02-01T05:30:20;100832.56;;;6.71;88.77
38022;BME280;23832;43.216;27.946;2023-02-01T05:32:22;100834.53;;;6.69;89.13
38022;BME280;23832;43.216;27.946;2023-02-01T05:34:25;100843.34;;;6.68;89.79
38022;BME280;23832;43.216;27.946;2023-02-01T05:36:27;100843.34;;;6.68;89.98
38022;BME280;23832;43.216;27.946;2023-02-01T05:38:29;100847.78;;;6.68;90.60
38022;BME280;23832;43.216;27.946;2023-02-01T05:40:31;100848.59;;;6.68;90.69
38022;BME280;23832;43.216;27.946;2023-02-01T05:42:32;100852.72;;;6.71;91.78
38022;BME280;23832;43.216;27.946;2023-02-01T05:44:34;100849.94;;;6.72;92.46
38022;BME280;23832;43.216;27.946;2023-02-01T05:46:36;100859.19;;;6.76;93.29
38022;BME280;23832;43.216;27.946;2023-02-01T05:48:38;100857.66;;;6.83;95.95
38022;BME280;23832;43.216;27.946;2023-02-01T05:50:41;100857.75;;;6.92;96.35
38022;BME280;23832;43.216;27.946;2023-02-01T05:52:42;100863.91;;;7.00;97.69
38022;BME280;23832;43.216;27.946;2023-02-01T05:54:44;100870.78;;;7.11;99.18
38022;BME280;23832;43.216;27.946;2023-02-01T05:56:46;100871.03;;;7.18;98.18
38022;BME280;23832;43.216;27.946;2023-02-01T05:58:47;100869.31;;;7.26;96.70
38022;BME280;23832;43.216;27.946;2023-02-01T06:00:49;100864.31;;;7.33;96.42
38022;BME280;23832;43.216;27.946;2023-02-01T06:02:51;100865.25;;;7.42;97.20
38022;BME280;23832;43.216;27.946;2023-02-01T06:04:53;100871.25;;;7.52;97.67
38022;BME280;23832;43.216;27.946;2023-02-01T06:06:57;100870.22;;;7.62;99.13
38022;BME280;23832;43.216;27.946;2023-02-01T06:08:59;100867.53;;;7.72;96.41
38022;BME280;23832;43.216;27.946;2023-02-01T06:11:02;100878.13;;;7.80;94.10
38022;BME280;23832;43.216;27.946;2023-02-01T06:13:04;100868.84;;;7.86;92.75
38022;BME280;23832;43.216;27.946;2023-02-01T06:15:06;100869.22;;;7.91;90.96
38022;BME280;23832;43.216;27.946;2023-02-01T06:17:08;100870.41;;;7.96;90.00
38022;BME280;23832;43.216;27.946;2023-02-01T06:19:12;100877.03;;;8.01;89.45
38022;BME280;23832;43.216;27.946;2023-02-01T06:21:14;100869.22;;;8.09;90.90
38022;BME280;23832;43.216;27.946;2023-02-01T06:23:25;100876.56;;;8.23;93.73
38022;BME280;23832;43.216;27.946;2023-02-01T06:25:27;100868.84;;;8.39;96.15
38022;BME280;23832;43.216;27.946;2023-02-01T06:27:29;100874.72;;;8.59;98.43
38022;BME280;23832;43.216;27.946;2023-02-01T06:29:32;100872.53;;;8.80;99.14
38022;BME280;23832;43.216;27.946;2023-02-01T06:31:34;100885.00;;;9.04;99.86
38022;BME280;23832;43.216;27.946;2023-02-01T06:33:36;100884.16;;;9.30;100.00
38022;BME280;23832;43.216;27.946;2023-02-01T06:35:38;100883.25;;;9.55;99.84
38022;BME280;23832;43.216;27.946;2023-02-01T06:37:39;100883.97;;;9.82;98.50
38022;BME280;23832;43.216;27.946;2023-02-01T06:39:43;100885.00;;;10.05;96.14
38022;BME280;23832;43.216;27.946;2023-02-01T06:41:45;100878.78;;;10.22;90.96
38022;BME280;23832;43.216;27.946;2023-02-01T06:43:47;100881.41;;;10.39;87.02
38022;BME280;23832;43.216;27.946;2023-02-01T06:45:49;100888.66;;;10.53;84.99
38022;BME280;23832;43.216;27.946;2023-02-01T06:47:51;100889.31;;;10.63;83.11
38022;BME280;23832;43.216;27.946;2023-02-01T06:49:53;100888.66;;;10.69;80.69
38022;BME280;23832;43.216;27.946;2023-02-01T06:51:54;100885.84;;;10.71;78.06
38022;BME280;23832;43.216;27.946;2023-02-01T06:53:56;100881.22;;;10.73;76.69
38022;BME280;23832;43.216;27.946;2023-02-01T06:56:00;100890.94;;;10.80;77.49
38022;BME280;23832;43.216;27.946;2023-02-01T06:58:02;100889.56;;;10.93;79.12
38022;BME280;23832;43.216;27.946;2023-02-01T07:00:05;100893.00;;;11.09;80.73
38022;BME280;23832;43.216;27.946;2023-02-01T07:02:09;100896.88;;;11.30;81.13
38022;BME280;23832;43.216;27.946;2023-02-01T07:04:11;100903.88;;;11.54;80.97
38022;BME280;23832;43.216;27.946;2023-02-01T07:06:12;100897.16;;;11.74;78.59
38022;BME280;23832;43.216;27.946;2023-02-01T07:08:14;100894.81;;;11.87;72.72
38022;BME280;23832;43.216;27.946;2023-02-01T07:10:16;100903.34;;;11.98;69.93
38022;BME280;23832;43.216;27.946;2023-02-01T07:12:20;100899.75;;;12.13;70.72
38022;BME280;23832;43.216;27.946;2023-02-01T07:14:21;100903.75;;;12.32;71.08
38022;BME280;23832;43.216;27.946;2023-02-01T07:16:23;100898.97;;;12.50;71.03
38022;BME280;23832;43.216;27.946;2023-02-01T07:18:26;100904.44;;;12.64;68.55
38022;BME280;23832;43.216;27.946;2023-02-01T07:20:28;100902.38;;;12.74;66.32
38022;BME280;23832;43.216;27.946;2023-02-01T07:22:29;100894.34;;;12.82;66.09
38022;BME280;23832;43.216;27.946;2023-02-01T07:24:31;100898.28;;;12.86;64.15
38022;BME280;23832;43.216;27.946;2023-02-01T07:26:33;100897.28;;;12.87;63.02
38022;BME280;23832;43.216;27.946;2023-02-01T07:28:36;100900.75;;;12.88;62.54
38022;BME280;23832;43.216;27.946;2023-02-01T07:30:38;100893.38;;;12.98;63.44
38022;BME280;23832;43.216;27.946;2023-02-01T07:32:40;100893.19;;;13.14;64.71
38022;BME280;23832;43.216;27.946;2023-02-01T07:34:42;100885.16;;;13.37;65.06
38022;BME280;23832;43.216;27.946;2023-02-01T07:36:43;100892.41;;;13.64;65.67
38022;BME280;23832;43.216;27.946;2023-02-01T07:38:45;100888.66;;;13.95;66.17
38022;BME280;23832;43.216;27.946;2023-02-01T07:40:48;100888.34;;;14.26;65.95
38022;BME280;23832;43.216;27.946;2023-02-01T07:42:50;100899.66;;;14.56;65.18
38022;BME280;23832;43.216;27.946;2023-02-01T07:44:53;100889.66;;;14.86;62.74
38022;BME280;23832;43.216;27.946;2023-02-01T07:46:55;100890.63;;;15.13;61.05
38022;BME280;23832;43.216;27.946;2023-02-01T07:48:56;100894.44;;;15.39;59.35
38022;BME280;23832;43.216;27.946;2023-02-01T07:50:58;100899.88;;;15.65;58.53
38022;BME280;23832;43.216;27.946;2023-02-01T07:53:00;100888.69;;;15.89;57.42
38022;BME280;23832;43.216;27.946;2023-02-01T07:55:02;100889.75;;;16.15;56.92
38022;BME280;23832;43.216;27.946;2023-02-01T07:57:04;100897.53;;;16.43;55.88
38022;BME280;23832;43.216;27.946;2023-02-01T07:59:06;100892.22;;;16.69;55.03
38022;BME280;23832;43.216;27.946;2023-02-01T08:01:14;100895.72;;;16.90;54.16
38022;BME280;23832;43.216;27.946;2023-02-01T08:03:20;100894.63;;;17.04;52.05
38022;BME280;23832;43.216;27.946;2023-02-01T08:05:22;100897.06;;;17.19;51.45
38022;BME280;23832;43.216;27.946;2023-02-01T08:07:24;100895.13;;;17.39;51.10
38022;BME280;23832;43.216;27.946;2023-02-01T08:09:26;100901.59;;;17.63;51.12
38022;BME280;23832;43.216;27.946;2023-02-01T08:11:27;100904.97;;;17.90;51.03
38022;BME280;23832;43.216;27.946;2023-02-01T08:13:29;100903.53;;;18.19;50.93
38022;BME280;23832;43.216;27.946;2023-02-01T08:15:31;100909.69;;;18.51;51.01
38022;BME280;23832;43.216;27.946;2023-02-01T08:17:35;100905.91;;;18.84;50.12
38022;BME280;23832;43.216;27.946;2023-02-01T08:19:36;100904.16;;;19.14;49.61
38022;BME280;23832;43.216;27.946;2023-02-01T08:21:38;100902.81;;;19.42;48.14
38022;BME280;23832;43.216;27.946;2023-02-01T08:23:40;100899.00;;;19.68;47.30
38022;BME280;23832;43.216;27.946;2023-02-01T08:25:42;100900.03;;;19.97;47.44
38022;BME280;23832;43.216;27.946;2023-02-01T08:27:44;100905.34;;;20.27;47.02
38022;BME280;23832;43.216;27.946;2023-02-01T08:29:46;100899.94;;;20.57;46.60
38022;BME280;23832;43.216;27.946;2023-02-01T08:31:48;100902.28;;;20.88;45.68
38022;BME280;23832;43.216;27.946;2023-02-01T08:33:53;100905.03;;;21.17;44.90
38022;BME280;23832;43.216;27.946;2023-02-01T08:35:55;100910.47;;;21.45;43.85
38022;BME280;23832;43.216;27.946;2023-02-01T08:37:57;100910.16;;;21.70;43.07
38022;BME280;23832;43.216;27.946;2023-02-01T08:39:59;100913.56;;;21.94;42.35
38022;BME280;23832;43.216;27.946;2023-02-01T08:42:00;100898.94;;;22.19;41.60
38022;BME280;23832;43.216;27.946;2023-02-01T08:44:19;100905.56;;;22.45;40.79
38022;BME280;23832;43.216;27.946;2023-02-01T08:46:21;100904.56;;;22.67;40.55
38022;BME280;23832;43.216;27.946;2023-02-01T08:48:23;100911.88;;;22.89;39.29
38022;BME280;23832;43.216;27.946;2023-02-01T08:50:26;100901.66;;;23.08;38.63
38022;BME280;23832;43.216;27.946;2023-02-01T08:52:28;100906.50;;;23.28;38.76
38022;BME280;23832;43.216;27.946;2023-02-01T08:54:30;100908.63;;;23.47;38.54
38022;BME280;23832;43.216;27.946;2023-02-01T08:56:32;100903.78;;;23.71;38.02
38022;BME280;23832;43.216;27.946;2023-02-01T08:58:33;100906.97;;;23.95;38.01
38022;BME280;23832;43.216;27.946;2023-02-01T09:00:35;100902.84;;;24.15;37.46
38022;BME280;23832;43.216;27.946;2023-02-01T09:02:37;100912.69;;;24.31;36.43
38022;BME280;23832;43.216;27.946;2023-02-01T09:04:39;100910.66;;;24.43;36.08
38022;BME280;23832;43.216;27.946;2023-02-01T09:06:42;100904.03;;;24.56;35.67
38022;BME280;23832;43.216;27.946;2023-02-01T09:08:44;100904.09;;;24.66;35.28
38022;BME280;23832;43.216;27.946;2023-02-01T09:10:46;100903.88;;;24.78;35.26
38022;BME280;23832;43.216;27.946;2023-02-01T09:12:48;100906.13;;;24.91;35.28
38022;BME280;23832;43.216;27.946;2023-02-01T09:14:50;100911.38;;;25.08;34.39
38022;BME280;23832;43.216;27.946;2023-02-01T09:16:51;100915.19;;;25.22;33.75
38022;BME280;23832;43.216;27.946;2023-02-01T09:18:53;100899.06;;;25.37;33.52
38022;BME280;23832;43.216;27.946;2023-02-01T09:20:55;100892.66;;;25.54;33.46
38022;BME280;23832;43.216;27.946;2023-02-01T09:22:58;100893.72;;;25.58;32.32
38022;BME280;23832;43.216;27.946;2023-02-01T09:25:00;100878.59;;;25.46;30.30
38022;BME280;23832;43.216;27.946;2023-02-01T09:27:01;100886.13;;;25.39;31.01
38022;BME280;23832;43.216;27.946;2023-02-01T09:29:03;100878.50;;;25.21;30.04
38022;BME280;23832;43.216;27.946;2023-02-01T09:31:06;100879.69;;;24.93;29.52
38022;BME280;23832;43.216;27.946;2023-02-01T09:33:08;100879.91;;;24.81;30.33
38022;BME280;23832;43.216;27.946;2023-02-01T09:35:10;100881.28;;;24.84;31.00
38022;BME280;23832;43.216;27.946;2023-02-01T09:37:11;100864.88;;;24.96;31.45
38022;BME280;23832;43.216;27.946;2023-02-01T09:39:15;100862.56;;;25.09;31.09
38022;BME280;23832;43.216;27.946;2023-02-01T09:41:21;100867.44;;;25.17;30.43
38022;BME280;23832;43.216;27.946;2023-02-01T09:43:33;100859.47;;;24.96;28.65
38022;BME280;23832;43.216;27.946;2023-02-01T09:45:41;100862.50;;;24.57;28.34
38022;BME280;23832;43.216;27.946;2023-02-01T09:47:46;100863.31;;;24.25;28.75
38022;BME280;23832;43.216;27.946;2023-02-01T09:49:51;100853.94;;;23.96;29.01
38022;BME280;23832;43.216;27.946;2023-02-01T09:51:56;100850.41;;;23.63;28.84
38022;BME280;23832;43.216;27.946;2023-02-01T09:54:00;100855.50;;;23.38;29.25
38022;BME280;23832;43.216;27.946;2023-02-01T09:56:06;100851.00;;;23.21;29.79
38022;BME280;23832;43.216;27.946;2023-02-01T09:58:11;100849.28;;;23.10;29.72
38022;BME280;23832;43.216;27.946;2023-02-01T10:00:15;100851.81;;;23.00;29.74
38022;BME280;23832;43.216;27.946;2023-02-01T10:02:19;100846.88;;;22.92;29.70
38022;BME280;23832;43.216;27.946;2023-02-01T10:04:22;100843.88;;;22.88;30.11
38022;BME280;23832;43.216;27.946;2023-02-01T10:06:30;100840.81;;;23.02;31.10
38022;BME280;23832;43.216;27.946;2023-02-01T10:08:37;100830.22;;;23.39;31.90
38022;BME280;23832;43.216;27.946;2023-02-01T10:10:43;100833.66;;;23.83;32.06
38022;BME280;23832;43.216;27.946;2023-02-01T10:12:59;100827.31;;;24.31;31.64
38022;BME280;23832;43.216;27.946;2023-02-01T10:15:10;100822.75;;;24.84;31.20
38022;BME280;23832;43.216;27.946;2023-02-01T10:17:20;100819.69;;;25.23;30.25
38022;BME280;23832;43.216;27.946;2023-02-01T10:19:28;100807.63;;;25.61;30.16
38022;BME280;23832;43.216;27.946;2023-02-01T10:21:39;100813.63;;;25.99;29.80
38022;BME280;23832;43.216;27.946;2023-02-01T10:23:48;100805.19;;;26.41;30.06
38022;BME280;23832;43.216;27.946;2023-02-01T10:25:53;100806.94;;;26.86;29.77
38022;BME280;23832;43.216;27.946;2023-02-01T10:27:55;100798.41;;;27.24;29.05
38022;BME280;23832;43.216;27.946;2023-02-01T10:30:01;100801.47;;;27.51;28.46
38022;BME280;23832;43.216;27.946;2023-02-01T10:32:11;100789.94;;;27.75;27.68
38022;BME280;23832;43.216;27.946;2023-02-01T10:34:15;100793.00;;;27.97;27.27
38022;BME280;23832;43.216;27.946;2023-02-01T10:36:20;100795.22;;;28.19;27.17
38022;BME280;23832;43.216;27.946;2023-02-01T10:38:24;100792.88;;;28.41;26.72
38022;BME280;23832;43.216;27.946;2023-02-01T10:40:27;100790.22;;;28.60;26.32
38022;BME280;23832;43.216;27.946;2023-02-01T10:42:29;100791.81;;;28.85;26.48
38022;BME280;23832;43.216;27.946;2023-02-01T10:44:32;100787.97;;;29.10;26.13
38022;BME280;23832;43.216;27.946;2023-02-01T10:46:40;100793.94;;;29.31;25.72
38022;BME280;23832;43.216;27.946;2023-02-01T10:48:41;100784.28;;;29.38;24.99
38022;BME280;23832;43.216;27.946;2023-02-01T10:50:44;100773.59;;;29.28;24.25
38022;BME280;23832;43.216;27.946;2023-02-01T10:52:48;100779.81;;;29.29;24.50